Time;durP1;ratioP1;P1;durP2;ratioP2;P2;SDS_P1;SDS_P2;PMS_P1;PMS_P2;Temp;Humidity;BMP_temperature;BMP_pressure;BME280_temperature;BME280_humidity;BME280_pressure;Samples;Min_cycle;Max_cycle;Signal;HPM_P1;HPM_P2
2022/01/16 00:00:17;;;;;;;11.20;7.32;;;;;;;;;;5032751;28;20036;-77
2022/01/16 00:05:20;;;;;;;12.75;7.63;;;;;;;;;;5032721;28;20434;-76
2022/01/16 00:07:46;;;;;;;16.33;8.52;;;;;;;;;;5032138;28;20029;-77
2022/01/16 00:10:11;;;;;;;14.90;8.45;;;;;;;;;;5032909;28;20021;-75
2022/01/16 00:12:36;;;;;;;18.30;9.48;;;;;;;;;;5030703;28;20453;-76
2022/01/16 00:15:04;;;;;;;16.05;9.15;;;;;;;;;;5032297;28;20026;-76
2022/01/16 00:17:34;;;;;;;17.08;8.90;;;;;;;;;;5032124;28;20025;-77
2022/01/16 00:19:59;;;;;;;16.85;9.65;;;;;;;;;;5032605;28;20087;-77
2022/01/16 00:22:28;;;;;;;15.55;8.23;;;;;;;;;;5031786;28;20029;-77
2022/01/16 00:24:53;;;;;;;16.55;8.40;;;;;;;;;;5032538;28;20145;-77
2022/01/16 00:27:19;;;;;;;14.30;8.43;;;;;;;;;;5031846;28;20444;-76
2022/01/16 00:29:44;;;;;;;13.68;7.82;;;;;;;;;;5032866;28;20028;-77
2022/01/16 00:32:09;;;;;;;17.65;8.65;;;;;;;;;;5031800;28;20379;-75
2022/01/16 00:34:35;;;;;;;17.27;8.63;;;;;;;;;;5032130;28;20108;-77
2022/01/16 00:37:00;;;;;;;14.88;8.40;;;;;;;;;;5031765;28;20392;-75
2022/01/16 00:39:25;;;;;;;15.45;8.85;;;;;;;;;;5031917;28;20022;-75
2022/01/16 00:41:50;;;;;;;17.45;9.48;;;;;;;;;;5031756;28;20025;-77
2022/01/16 00:44:16;;;;;;;16.80;9.32;;;;;;;;;;5031954;28;20621;-77
2022/01/16 00:46:41;;;;;;;16.67;9.20;;;;;;;;;;5031152;28;20033;-74
2022/01/16 00:49:06;;;;;;;17.33;9.30;;;;;;;;;;5031901;28;20109;-75
2022/01/16 00:51:32;;;;;;;14.00;7.93;;;;;;;;;;5031244;28;20029;-76
2022/01/16 00:53:57;;;;;;;16.08;8.55;;;;;;;;;;5031546;28;20033;-74
2022/01/16 00:56:22;;;;;;;13.80;8.20;;;;;;;;;;5031040;28;20057;-77
2022/01/16 00:58:48;;;;;;;14.85;7.63;;;;;;;;;;5032078;28;20498;-74
2022/01/16 01:01:14;;;;;;;15.63;8.73;;;;;;;;;;5031501;28;20118;-77
2022/01/16 01:03:39;;;;;;;14.13;7.88;;;;;;;;;;5031378;28;20048;-74
2022/01/16 01:06:05;;;;;;;14.85;8.00;;;;;;;;;;5031363;28;20108;-77
2022/01/16 01:08:31;;;;;;;17.88;8.85;;;;;;;;;;5031072;28;20126;-75
2022/01/16 01:10:57;;;;;;;19.90;10.35;;;;;;;;;;5031556;28;20029;-76
2022/01/16 01:13:31;;;;;;;18.67;9.80;;;;;;;;;;5030897;28;20112;-77
2022/01/16 01:16:04;;;;;;;21.90;10.23;;;;;;;;;;5031022;28;20022;-75
2022/01/16 01:18:32;;;;;;;20.25;10.80;;;;;;;;;;5030910;28;20026;-75
2022/01/16 01:20:59;;;;;;;21.15;10.77;;;;;;;;;;5031299;28;20026;-77
2022/01/16 01:23:24;;;;;;;22.13;10.70;;;;;;;;;;5030877;28;20028;-74
2022/01/16 01:25:50;;;;;;;18.73;10.07;;;;;;;;;;5031115;28;20064;-75
2022/01/16 01:28:15;;;;;;;18.80;9.25;;;;;;;;;;5030682;28;20036;-75
2022/01/16 01:30:44;;;;;;;19.95;9.82;;;;;;;;;;5031133;28;20434;-76
2022/01/16 01:33:09;;;;;;;21.88;10.23;;;;;;;;;;5030528;28;20100;-76
2022/01/16 01:35:39;;;;;;;23.52;10.40;;;;;;;;;;5030940;28;20459;-74
2022/01/16 01:38:06;;;;;;;24.38;12.25;;;;;;;;;;5030328;28;20108;-73
2022/01/16 01:40:34;;;;;;;20.95;10.85;;;;;;;;;;5030891;28;20391;-76
2022/01/16 01:51:16;;;;;;;22.50;11.38;;;;;;;;;;5030992;28;20033;-77
2022/01/16 01:53:43;;;;;;;29.30;12.93;;;;;;;;;;5029935;28;20033;-75
2022/01/16 01:56:10;;;;;;;28.67;12.73;;;;;;;;;;5030705;28;20029;-74
2022/01/16 01:58:36;;;;;;;30.75;13.55;;;;;;;;;;5030008;28;20430;-77
2022/01/16 02:01:03;;;;;;;26.52;12.52;;;;;;;;;;5030708;28;20031;-76
2022/01/16 02:06:08;;;;;;;32.22;13.45;;;;;;;;;;5030049;28;20061;-74
2022/01/16 02:08:37;;;;;;;33.75;14.52;;;;;;;;;;5029560;28;20029;-77
2022/01/16 02:11:03;;;;;;;29.60;13.07;;;;;;;;;;5030339;28;20087;-77
2022/01/16 02:13:44;;;;;;;31.70;13.65;;;;;;;;;;5029844;28;20022;-76
2022/01/16 02:32:49;;;;;;;33.08;13.90;;;;;;;;;;4968031;28;20049;-77
2022/01/16 02:35:14;;;;;;;32.35;14.02;;;;;;;;;;4968465;28;20038;-77
2022/01/16 02:37:40;;;;;;;33.22;13.93;;;;;;;;;;5001318;28;20042;-77
2022/01/16 02:40:17;;;;;;;30.27;14.02;;;;;;;;;;5030336;28;20044;-76
2022/01/16 02:42:48;;;;;;;39.38;15.68;;;;;;;;;;5029927;28;20029;-77
2022/01/16 02:45:27;;;;;;;30.42;14.68;;;;;;;;;;5030496;28;20053;-77
2022/01/16 02:47:52;;;;;;;32.03;15.15;;;;;;;;;;5029530;28;20037;-77
2022/01/16 02:50:17;;;;;;;35.15;14.32;;;;;;;;;;5028630;28;20018;-77
2022/01/16 02:52:43;;;;;;;38.40;15.55;;;;;;;;;;5029566;28;20316;-77
2022/01/16 02:55:13;;;;;;;39.33;15.45;;;;;;;;;;5029455;28;20041;-77
2022/01/16 02:57:38;;;;;;;37.15;14.50;;;;;;;;;;5029117;28;20045;-76
2022/01/16 03:00:04;;;;;;;34.67;14.15;;;;;;;;;;5029392;28;20028;-75
2022/01/16 03:02:29;;;;;;;38.67;15.13;;;;;;;;;;5029511;28;20542;-77
2022/01/16 03:04:55;;;;;;;36.72;15.32;;;;;;;;;;5028721;28;20025;-77
2022/01/16 03:07:22;;;;;;;41.88;15.70;;;;;;;;;;5029454;28;20129;-77
2022/01/16 03:12:39;;;;;;;36.53;13.45;;;;;;;;;;5029873;28;20033;-77
2022/01/16 03:15:06;;;;;;;38.97;15.95;;;;;;;;;;5028807;28;20026;-77
2022/01/16 03:17:40;;;;;;;37.78;15.07;;;;;;;;;;5029667;28;20133;-77
2022/01/16 03:22:51;;;;;;;34.75;14.48;;;;;;;;;;5033471;28;20151;-76
2022/01/16 03:25:16;;;;;;;35.13;15.20;;;;;;;;;;5032966;28;20047;-77
2022/01/16 03:27:42;;;;;;;42.53;16.70;;;;;;;;;;5033540;28;20040;-77
2022/01/16 03:30:10;;;;;;;37.70;15.10;;;;;;;;;;5032749;28;20037;-77
2022/01/16 03:32:36;;;;;;;44.55;16.02;;;;;;;;;;5033813;28;20391;-76
2022/01/16 03:35:02;;;;;;;39.38;15.85;;;;;;;;;;5032577;28;20030;-76
2022/01/16 03:37:27;;;;;;;38.47;15.82;;;;;;;;;;5033143;28;20064;-76
2022/01/16 03:39:52;;;;;;;38.25;15.25;;;;;;;;;;5032568;28;20037;-76
2022/01/16 03:42:24;;;;;;;33.00;14.18;;;;;;;;;;5033066;28;20036;-77
2022/01/16 03:44:50;;;;;;;38.30;15.80;;;;;;;;;;5032366;28;20510;-76
2022/01/16 03:47:15;;;;;;;36.88;14.95;;;;;;;;;;5033137;28;20033;-75
2022/01/16 03:49:40;;;;;;;36.95;14.43;;;;;;;;;;5032389;28;20110;-76
2022/01/16 03:52:06;;;;;;;39.92;15.07;;;;;;;;;;5032626;28;20075;-76
2022/01/16 03:54:31;;;;;;;36.45;14.63;;;;;;;;;;5032749;28;20707;-78
2022/01/16 03:56:57;;;;;;;41.00;15.52;;;;;;;;;;5032904;28;20450;-76
2022/01/16 03:59:23;;;;;;;40.90;15.90;;;;;;;;;;5032192;28;20030;-77
2022/01/16 04:01:49;;;;;;;32.90;14.00;;;;;;;;;;5032656;28;20037;-76
2022/01/16 04:04:14;;;;;;;41.03;15.00;;;;;;;;;;5032055;28;20037;-76
2022/01/16 04:06:39;;;;;;;45.42;15.63;;;;;;;;;;5032535;28;20387;-76
2022/01/16 04:09:05;;;;;;;36.30;14.02;;;;;;;;;;5032119;28;20024;-75
2022/01/16 04:11:31;;;;;;;34.03;14.35;;;;;;;;;;5032604;28;20396;-77
2022/01/16 04:14:06;;;;;;;30.92;13.77;;;;;;;;;;5032197;28;20038;-76
2022/01/16 04:16:32;;;;;;;35.72;14.70;;;;;;;;;;5032978;28;20071;-76
2022/01/16 04:18:58;;;;;;;43.85;16.08;;;;;;;;;;5031826;28;20507;-76
2022/01/16 04:21:27;;;;;;;34.53;14.88;;;;;;;;;;5032629;28;20395;-76
2022/01/16 04:23:53;;;;;;;41.88;16.25;;;;;;;;;;5031990;28;20029;-77
2022/01/16 04:26:20;;;;;;;37.40;15.32;;;;;;;;;;5032164;28;20026;-77
2022/01/16 04:28:49;;;;;;;44.85;14.93;;;;;;;;;;5031706;28;20033;-75
2022/01/16 04:31:15;;;;;;;39.20;15.50;;;;;;;;;;5031287;28;20071;-76
2022/01/16 04:33:41;;;;;;;39.88;15.93;;;;;;;;;;5031975;28;20237;-75
2022/01/16 04:36:07;;;;;;;39.97;16.15;;;;;;;;;;5032120;28;20029;-76
2022/01/16 04:38:34;;;;;;;42.58;14.85;;;;;;;;;;5032084;28;20033;-76
2022/01/16 04:43:53;;;;;;;39.50;16.00;;;;;;;;;;5032119;28;20036;-76
2022/01/16 04:46:22;;;;;;;36.33;13.48;;;;;;;;;;5031835;28;20033;-76
2022/01/16 04:48:48;;;;;;;45.38;15.18;;;;;;;;;;5031888;28;20025;-76
2022/01/16 04:51:14;;;;;;;46.60;16.88;;;;;;;;;;5031354;28;20013;-76
2022/01/16 04:53:40;;;;;;;44.97;15.93;;;;;;;;;;5031891;28;20030;-75
2022/01/16 04:56:06;;;;;;;40.03;14.70;;;;;;;;;;5031529;28;20651;-75
2022/01/16 04:58:33;;;;;;;44.58;15.60;;;;;;;;;;5031655;28;20503;-76
2022/01/16 05:00:58;;;;;;;38.63;14.85;;;;;;;;;;5031033;28;20123;-76
2022/01/16 05:03:25;;;;;;;39.30;14.50;;;;;;;;;;5031466;28;20030;-77
2022/01/16 05:05:50;;;;;;;35.92;14.52;;;;;;;;;;5030672;28;20040;-76
2022/01/16 05:08:16;;;;;;;37.75;14.45;;;;;;;;;;5031561;28;20029;-76
2022/01/16 05:10:41;;;;;;;35.40;13.68;;;;;;;;;;5031561;28;20100;-76
2022/01/16 05:18:31;;;;;;;36.47;14.18;;;;;;;;;;5031516;28;20036;-76
2022/01/16 05:20:57;;;;;;;36.83;13.65;;;;;;;;;;5030803;28;20033;-76
2022/01/16 05:23:22;;;;;;;35.53;13.55;;;;;;;;;;5031203;28;20079;-76
2022/01/16 05:25:47;;;;;;;37.28;13.05;;;;;;;;;;5030351;28;20416;-76
2022/01/16 05:28:12;;;;;;;35.40;15.60;;;;;;;;;;5031416;28;20026;-75
2022/01/16 05:30:38;;;;;;;39.50;14.10;;;;;;;;;;5030820;28;20032;-76
2022/01/16 05:33:03;;;;;;;38.45;13.55;;;;;;;;;;5031272;28;20022;-76
2022/01/16 05:35:28;;;;;;;34.50;14.30;;;;;;;;;;5030655;28;20362;-76
2022/01/16 05:37:54;;;;;;;36.65;15.18;;;;;;;;;;5031051;28;20029;-75
2022/01/16 05:40:19;;;;;;;36.22;14.07;;;;;;;;;;5030246;28;20022;-76
2022/01/16 05:42:44;;;;;;;39.40;15.85;;;;;;;;;;5030734;28;20026;-77
2022/01/16 05:45:10;;;;;;;34.25;12.65;;;;;;;;;;5030408;28;20025;-76
2022/01/16 05:47:35;;;;;;;36.75;12.90;;;;;;;;;;5030977;28;20113;-74
2022/01/16 05:50:00;;;;;;;40.72;15.02;;;;;;;;;;5030329;28;20025;-75
2022/01/16 05:52:26;;;;;;;44.35;15.68;;;;;;;;;;5030557;28;20512;-76
2022/01/16 05:54:51;;;;;;;38.95;15.02;;;;;;;;;;5029870;28;20026;-77
2022/01/16 05:57:16;;;;;;;40.92;14.90;;;;;;;;;;5030697;28;20021;-76
2022/01/16 05:59:42;;;;;;;44.05;16.17;;;;;;;;;;5030019;28;20048;-76
2022/01/16 06:02:08;;;;;;;38.55;14.85;;;;;;;;;;5030364;28;20057;-76
2022/01/16 06:04:33;;;;;;;36.63;14.10;;;;;;;;;;5030716;28;20310;-75
2022/01/16 06:06:59;;;;;;;37.90;14.73;;;;;;;;;;5030103;28;20044;-77
2022/01/16 06:09:26;;;;;;;32.30;13.13;;;;;;;;;;5030534;28;20108;-76
2022/01/16 06:11:52;;;;;;;41.53;16.25;;;;;;;;;;5029946;28;20025;-77
2022/01/16 06:14:17;;;;;;;35.03;13.95;;;;;;;;;;5030287;28;20395;-77
2022/01/16 06:16:43;;;;;;;36.58;13.75;;;;;;;;;;5029453;28;20044;-76
2022/01/16 06:19:08;;;;;;;40.15;15.63;;;;;;;;;;5030536;28;20420;-76
2022/01/16 06:21:33;;;;;;;35.20;12.52;;;;;;;;;;5029830;28;20032;-75
2022/01/16 06:24:00;;;;;;;35.38;12.77;;;;;;;;;;5030661;28;20032;-76
2022/01/16 06:26:25;;;;;;;42.15;14.43;;;;;;;;;;5029450;28;20056;-76
2022/01/16 06:28:50;;;;;;;33.60;13.85;;;;;;;;;;5030050;28;20467;-77
2022/01/16 06:31:16;;;;;;;35.47;13.43;;;;;;;;;;5029555;28;20029;-76
2022/01/16 06:33:41;;;;;;;40.67;13.85;;;;;;;;;;5030364;28;20025;-75
2022/01/16 06:36:06;;;;;;;39.33;14.27;;;;;;;;;;5029195;28;20551;-75
2022/01/16 06:38:32;;;;;;;32.97;14.15;;;;;;;;;;5029794;28;20025;-76
2022/01/16 06:40:57;;;;;;;32.92;13.23;;;;;;;;;;5029457;28;20483;-76
2022/01/16 06:43:22;;;;;;;34.85;13.45;;;;;;;;;;5029981;28;20021;-76
2022/01/16 06:45:48;;;;;;;38.35;13.50;;;;;;;;;;5029077;28;20025;-76
2022/01/16 06:48:13;;;;;;;29.30;12.05;;;;;;;;;;5029814;28;20435;-76
2022/01/16 06:50:38;;;;;;;31.67;11.90;;;;;;;;;;5029304;28;20025;-77
2022/01/16 06:53:04;;;;;;;28.25;11.63;;;;;;;;;;5029073;28;20120;-75
2022/01/16 06:55:29;;;;;;;28.63;11.68;;;;;;;;;;5029174;28;20022;-76
2022/01/16 06:57:54;;;;;;;35.00;13.27;;;;;;;;;;5029699;28;20519;-76
2022/01/16 07:00:20;;;;;;;37.28;12.50;;;;;;;;;;5029268;28;20034;-76
2022/01/16 07:02:45;;;;;;;33.42;13.15;;;;;;;;;;5028383;28;20140;-76
2022/01/16 07:05:10;;;;;;;34.63;13.27;;;;;;;;;;5029731;28;20064;-76
2022/01/16 07:07:36;;;;;;;33.45;12.65;;;;;;;;;;5028876;28;20074;-75
2022/01/16 07:10:02;;;;;;;28.13;11.43;;;;;;;;;;5029600;28;20402;-77
2022/01/16 07:12:27;;;;;;;38.67;16.48;;;;;;;;;;5028981;28;20483;-76
2022/01/16 07:14:53;;;;;;;33.15;12.98;;;;;;;;;;5029245;28;20092;-76
2022/01/16 07:17:18;;;;;;;29.42;11.73;;;;;;;;;;5028860;28;20033;-74
2022/01/16 07:19:43;;;;;;;32.13;13.45;;;;;;;;;;5029340;28;20026;-76
2022/01/16 07:22:09;;;;;;;35.25;13.15;;;;;;;;;;5028820;28;20160;-76
2022/01/16 07:24:34;;;;;;;28.35;11.05;;;;;;;;;;5029133;28;20479;-76
2022/01/16 07:27:02;;;;;;;30.20;12.32;;;;;;;;;;5028923;28;20034;-76
2022/01/16 07:29:29;;;;;;;29.02;11.48;;;;;;;;;;5029275;28;20222;-76
2022/01/16 07:31:54;;;;;;;30.52;12.20;;;;;;;;;;5028740;28;20026;-76
2022/01/16 07:34:19;;;;;;;31.13;12.15;;;;;;;;;;5029212;28;20087;-76
2022/01/16 07:36:45;;;;;;;40.75;14.65;;;;;;;;;;5028539;28;20025;-76
2022/01/16 07:39:10;;;;;;;36.22;13.88;;;;;;;;;;5029578;28;20534;-76
2022/01/16 07:41:36;;;;;;;33.55;14.27;;;;;;;;;;5027272;28;20025;-77
2022/01/16 07:44:01;;;;;;;28.98;11.98;;;;;;;;;;5029152;28;20061;-76
2022/01/16 07:46:27;;;;;;;30.27;12.23;;;;;;;;;;5028538;28;20025;-77
2022/01/16 07:48:53;;;;;;;26.63;11.90;;;;;;;;;;5029349;28;20479;-76
2022/01/16 07:51:18;;;;;;;30.13;13.30;;;;;;;;;;5028620;28;20017;-76
2022/01/16 07:53:43;;;;;;;32.50;12.85;;;;;;;;;;5029025;28;20029;-76
2022/01/16 07:56:09;;;;;;;30.75;12.23;;;;;;;;;;5028544;28;20029;-77
2022/01/16 07:58:36;;;;;;;32.10;12.65;;;;;;;;;;5029376;28;20033;-76
2022/01/16 08:01:02;;;;;;;35.45;13.05;;;;;;;;;;5028894;28;20109;-76
2022/01/16 08:03:27;;;;;;;30.75;13.98;;;;;;;;;;5029263;28;20112;-76
2022/01/16 08:05:52;;;;;;;32.15;13.93;;;;;;;;;;5031061;28;20033;-76
2022/01/16 08:08:18;;;;;;;31.17;12.57;;;;;;;;;;5031857;28;20036;-76
2022/01/16 08:10:43;;;;;;;31.42;12.85;;;;;;;;;;5032548;28;20028;-76
2022/01/16 08:13:08;;;;;;;35.83;14.43;;;;;;;;;;5031796;28;20075;-77
2022/01/16 08:15:34;;;;;;;32.78;13.13;;;;;;;;;;5032466;28;20487;-76
2022/01/16 08:17:59;;;;;;;43.58;18.27;;;;;;;;;;5032057;28;20049;-76
2022/01/16 08:20:25;;;;;;;36.53;13.77;;;;;;;;;;5032447;28;20033;-77
2022/01/16 08:22:51;;;;;;;37.03;14.93;;;;;;;;;;5028206;28;20036;-76
2022/01/16 08:25:16;;;;;;;29.23;11.30;;;;;;;;;;5032408;28;20029;-76
2022/01/16 08:27:42;;;;;;;33.33;14.30;;;;;;;;;;5031428;28;20032;-76
2022/01/16 08:30:09;;;;;;;30.55;12.50;;;;;;;;;;5031588;28;20025;-75
2022/01/16 08:32:35;;;;;;;37.67;14.50;;;;;;;;;;5031497;28;20483;-75
2022/01/16 08:35:00;;;;;;;41.40;14.25;;;;;;;;;;5031876;28;20096;-75
2022/01/16 08:37:26;;;;;;;40.85;15.73;;;;;;;;;;5030161;28;20109;-76
2022/01/16 08:39:52;;;;;;;39.40;16.80;;;;;;;;;;5032011;28;20068;-76
2022/01/16 08:42:17;;;;;;;34.20;14.02;;;;;;;;;;5031498;28;20155;-74
2022/01/16 08:44:43;;;;;;;38.17;15.82;;;;;;;;;;5031852;28;20548;-76
2022/01/16 08:47:09;;;;;;;43.75;15.90;;;;;;;;;;5030309;28;20033;-75
2022/01/16 08:49:35;;;;;;;39.22;14.70;;;;;;;;;;5032077;28;20033;-75
2022/01/16 08:52:01;;;;;;;35.33;14.05;;;;;;;;;;5031771;28;20039;-75
2022/01/16 08:54:27;;;;;;;37.58;14.50;;;;;;;;;;5032450;28;20075;-76
2022/01/16 08:56:52;;;;;;;34.72;13.80;;;;;;;;;;5031876;28;20030;-77
2022/01/16 08:59:17;;;;;;;36.33;15.38;;;;;;;;;;5031684;28;20380;-76
2022/01/16 09:01:43;;;;;;;34.30;14.45;;;;;;;;;;5030792;28;20037;-76
2022/01/16 09:04:08;;;;;;;36.25;14.30;;;;;;;;;;5031747;28;20093;-76
2022/01/16 09:06:33;;;;;;;35.67;13.50;;;;;;;;;;5031639;28;20105;-77
2022/01/16 09:08:59;;;;;;;39.42;15.20;;;;;;;;;;5031677;28;20552;-75
2022/01/16 09:11:25;;;;;;;34.05;13.35;;;;;;;;;;5031557;28;20499;-75
2022/01/16 09:13:52;;;;;;;35.95;13.75;;;;;;;;;;5031029;28;20036;-76
2022/01/16 09:16:18;;;;;;;37.72;14.93;;;;;;;;;;5031316;28;20030;-76
2022/01/16 09:18:44;;;;;;;36.58;14.02;;;;;;;;;;5030781;28;20023;-75
2022/01/16 09:21:10;;;;;;;34.15;13.18;;;;;;;;;;5036507;28;20036;-81
2022/01/16 09:23:37;;;;;;;40.83;16.42;;;;;;;;;;5040174;28;20044;-80
2022/01/16 09:26:05;;;;;;;33.60;14.60;;;;;;;;;;5039016;28;20045;-80
2022/01/16 09:28:31;;;;;;;40.70;18.15;;;;;;;;;;5040233;28;20093;-81
2022/01/16 09:31:00;;;;;;;51.20;22.10;;;;;;;;;;5039180;28;20049;-80
2022/01/16 09:33:25;;;;;;;36.80;15.02;;;;;;;;;;5040558;28;20029;-80
2022/01/16 09:35:51;;;;;;;51.72;21.80;;;;;;;;;;5041417;28;20036;-80
2022/01/16 09:38:17;;;;;;;53.60;22.73;;;;;;;;;;5040917;28;20033;-79
2022/01/16 09:40:45;;;;;;;31.73;13.85;;;;;;;;;;5039981;28;20033;-77
2022/01/16 09:43:11;;;;;;;37.47;15.18;;;;;;;;;;5040704;28;20032;-80
2022/01/16 09:45:36;;;;;;;35.53;13.75;;;;;;;;;;5040731;28;20108;-79
2022/01/16 09:48:03;;;;;;;37.72;14.65;;;;;;;;;;5040011;28;20025;-79
2022/01/16 09:50:28;;;;;;;32.78;15.27;;;;;;;;;;5040379;28;20026;-82
2022/01/16 09:52:54;;;;;;;34.95;16.20;;;;;;;;;;5039503;28;20295;-80
2022/01/16 09:55:22;;;;;;;40.30;18.80;;;;;;;;;;5040902;28;20077;-82
2022/01/16 09:57:48;;;;;;;37.13;15.32;;;;;;;;;;5040541;28;20025;-80
2022/01/16 10:00:16;;;;;;;39.20;16.25;;;;;;;;;;5038383;28;20048;-80
2022/01/16 10:02:42;;;;;;;37.38;15.45;;;;;;;;;;5038992;28;20033;-81
2022/01/16 10:05:41;;;;;;;39.28;14.98;;;;;;;;;;5038909;28;20029;-80
2022/01/16 10:08:11;;;;;;;35.33;14.15;;;;;;;;;;5039125;28;20036;-78
2022/01/16 10:10:45;;;;;;;36.53;15.38;;;;;;;;;;5036803;28;20432;-79
2022/01/16 10:13:41;;;;;;;32.45;14.18;;;;;;;;;;5035685;28;20376;-81
2022/01/16 10:16:07;;;;;;;34.53;13.80;;;;;;;;;;5039209;28;20503;-78
2022/01/16 10:18:41;;;;;;;37.05;15.05;;;;;;;;;;5036826;28;20067;-79
2022/01/16 10:21:08;;;;;;;33.25;14.05;;;;;;;;;;5037768;28;20029;-76
2022/01/16 10:23:43;;;;;;;35.22;14.75;;;;;;;;;;5029198;28;20024;-76
2022/01/16 10:26:19;;;;;;;36.10;14.35;;;;;;;;;;5029636;28;20100;-76
2022/01/16 10:28:45;;;;;;;35.78;14.07;;;;;;;;;;5028628;28;20491;-76
2022/01/16 10:31:18;;;;;;;30.35;13.32;;;;;;;;;;5029977;28;20052;-76
2022/01/16 10:33:43;;;;;;;30.23;13.40;;;;;;;;;;5029520;28;20036;-76
2022/01/16 10:36:08;;;;;;;38.20;14.57;;;;;;;;;;5029834;28;20441;-76
2022/01/16 10:38:34;;;;;;;34.30;13.13;;;;;;;;;;5029878;28;20021;-75
2022/01/16 10:41:00;;;;;;;30.30;13.82;;;;;;;;;;5031075;28;20049;-74
2022/01/16 10:43:38;;;;;;;34.45;15.15;;;;;;;;;;5029799;28;20540;-76
2022/01/16 10:46:04;;;;;;;32.00;14.10;;;;;;;;;;5030807;28;20160;-76
2022/01/16 10:48:32;;;;;;;37.42;15.15;;;;;;;;;;5029599;28;20052;-77
2022/01/16 10:50:58;;;;;;;34.97;14.02;;;;;;;;;;5029976;28;20059;-77
2022/01/16 10:53:26;;;;;;;32.10;14.13;;;;;;;;;;5029461;28;20060;-77
2022/01/16 10:55:54;;;;;;;33.70;14.07;;;;;;;;;;5029833;28;20032;-77
2022/01/16 10:58:25;;;;;;;33.20;14.15;;;;;;;;;;5027338;28;20110;-77
2022/01/16 11:00:54;;;;;;;32.17;14.25;;;;;;;;;;5011056;28;20379;-77
2022/01/16 11:03:21;;;;;;;35.33;15.75;;;;;;;;;;5010014;28;20069;-77
2022/01/16 11:05:49;;;;;;;33.03;13.90;;;;;;;;;;5010403;28;20018;-76
2022/01/16 11:08:16;;;;;;;33.88;14.52;;;;;;;;;;5012869;28;20060;-76
2022/01/16 11:10:47;;;;;;;31.60;14.02;;;;;;;;;;5029846;28;20028;-76
2022/01/16 11:13:17;;;;;;;35.92;14.82;;;;;;;;;;5033390;28;20026;-76
2022/01/16 11:15:50;;;;;;;32.60;14.02;;;;;;;;;;5011855;28;20022;-76
2022/01/16 11:18:17;;;;;;;31.30;14.50;;;;;;;;;;5009684;28;20026;-76
2022/01/16 11:20:52;;;;;;;34.90;14.13;;;;;;;;;;5009579;28;20044;-77
2022/01/16 11:26:04;;;;;;;33.28;12.63;;;;;;;;;;5009734;28;20096;-77
2022/01/16 11:28:30;;;;;;;36.40;15.18;;;;;;;;;;5009128;28;20029;-76
2022/01/16 11:30:58;;;;;;;32.53;15.43;;;;;;;;;;5009575;28;20014;-76
2022/01/16 11:33:26;;;;;;;34.90;15.63;;;;;;;;;;5009301;28;20431;-76
2022/01/16 11:36:14;;;;;;;32.35;14.35;;;;;;;;;;5009426;28;20236;-77
2022/01/16 11:38:50;;;;;;;33.25;15.73;;;;;;;;;;5009408;28;20021;-76
2022/01/16 11:41:19;;;;;;;39.15;17.05;;;;;;;;;;5013392;28;20361;-75
2022/01/16 11:43:47;;;;;;;36.00;14.85;;;;;;;;;;5013235;28;20065;-77
2022/01/16 11:46:34;;;;;;;36.47;16.38;;;;;;;;;;5013381;28;20105;-76
2022/01/16 11:49:01;;;;;;;31.33;13.93;;;;;;;;;;5012932;28;20041;-76
2022/01/16 11:51:32;;;;;;;34.33;13.88;;;;;;;;;;5013362;28;20025;-76
2022/01/16 11:53:57;;;;;;;36.45;15.70;;;;;;;;;;5012511;28;20407;-77
2022/01/16 11:56:38;;;;;;;37.75;15.88;;;;;;;;;;5012996;28;20125;-76
2022/01/16 11:59:14;;;;;;;39.40;16.00;;;;;;;;;;5012976;28;20033;-77
2022/01/16 12:01:52;;;;;;;34.53;14.85;;;;;;;;;;5012839;28;20026;-76
2022/01/16 12:04:30;;;;;;;34.05;15.93;;;;;;;;;;5012575;28;20447;-77
2022/01/16 12:06:58;;;;;;;36.55;15.55;;;;;;;;;;5012987;28;20391;-77
2022/01/16 12:12:12;;;;;;;34.00;15.15;;;;;;;;;;5013054;28;20033;-76
2022/01/16 12:15:00;;;;;;;39.45;16.58;;;;;;;;;;5012327;28;20503;-76
2022/01/16 12:17:30;;;;;;;33.58;13.82;;;;;;;;;;5012886;28;20479;-77
2022/01/16 12:19:57;;;;;;;33.85;14.98;;;;;;;;;;5012105;28;20022;-76
2022/01/16 12:22:47;;;;;;;35.95;15.93;;;;;;;;;;5012325;28;20364;-77
2022/01/16 12:25:18;;;;;;;37.25;16.10;;;;;;;;;;5010665;28;20033;-77
2022/01/16 12:27:51;;;;;;;29.25;13.98;;;;;;;;;;5012475;28;20026;-77
2022/01/16 12:30:32;;;;;;;36.97;15.68;;;;;;;;;;5014372;28;20438;-77
2022/01/16 12:33:10;;;;;;;34.53;15.25;;;;;;;;;;5025286;28;20033;-75
2022/01/16 12:35:39;;;;;;;40.97;17.10;;;;;;;;;;5031424;28;20033;-76
2022/01/16 12:38:09;;;;;;;32.35;14.63;;;;;;;;;;5029764;28;20444;-77
2022/01/16 12:40:35;;;;;;;36.25;16.35;;;;;;;;;;5030607;28;20056;-76
2022/01/16 12:43:01;;;;;;;39.10;17.15;;;;;;;;;;5018843;28;20025;-76
2022/01/16 12:45:26;;;;;;;33.05;15.55;;;;;;;;;;5011613;28;20064;-76
2022/01/16 12:47:52;;;;;;;33.40;16.13;;;;;;;;;;5030876;28;20048;-76
2022/01/16 12:50:18;;;;;;;35.97;16.08;;;;;;;;;;5030285;28;20105;-75
2022/01/16 12:52:47;;;;;;;33.80;15.40;;;;;;;;;;5030871;28;20056;-75
2022/01/16 12:55:13;;;;;;;34.92;15.52;;;;;;;;;;5030943;28;20053;-76
2022/01/16 12:57:39;;;;;;;35.25;15.88;;;;;;;;;;5031241;28;20100;-76
2022/01/16 13:00:11;;;;;;;32.30;15.32;;;;;;;;;;5030235;28;20452;-76
2022/01/16 13:02:37;;;;;;;32.45;14.02;;;;;;;;;;5031602;28;20025;-76
2022/01/16 13:05:04;;;;;;;31.38;15.43;;;;;;;;;;5031248;28;20415;-76
2022/01/16 13:07:30;;;;;;;35.13;14.75;;;;;;;;;;5031609;28;20026;-77
2022/01/16 13:09:56;;;;;;;31.10;13.95;;;;;;;;;;5031049;28;20033;-76
2022/01/16 13:12:22;;;;;;;35.55;13.55;;;;;;;;;;5027967;28;20124;-77
2022/01/16 13:14:48;;;;;;;30.83;13.93;;;;;;;;;;5030507;28;20100;-76
2022/01/16 13:17:14;;;;;;;30.80;14.38;;;;;;;;;;5031703;28;20021;-76
2022/01/16 13:19:57;;;;;;;32.88;14.80;;;;;;;;;;5030917;28;20388;-76
2022/01/16 13:22:25;;;;;;;30.05;14.32;;;;;;;;;;5012084;28;20099;-76
2022/01/16 13:25:04;;;;;;;33.30;15.05;;;;;;;;;;5010778;28;20037;-76
2022/01/16 13:27:51;;;;;;;30.10;15.05;;;;;;;;;;5027373;28;20276;-76
2022/01/16 13:30:25;;;;;;;30.70;14.20;;;;;;;;;;5051452;28;20121;-76
2022/01/16 13:32:51;;;;;;;30.70;14.45;;;;;;;;;;5046983;28;20047;-77
2022/01/16 13:35:25;;;;;;;29.52;15.02;;;;;;;;;;5032520;28;20030;-76
2022/01/16 13:37:54;;;;;;;32.17;14.55;;;;;;;;;;5020707;28;20025;-76
2022/01/16 13:40:24;;;;;;;31.60;15.10;;;;;;;;;;5023772;28;20025;-77
2022/01/16 13:43:02;;;;;;;31.35;15.45;;;;;;;;;;5022139;28;20431;-76
2022/01/16 13:45:35;;;;;;;29.25;13.15;;;;;;;;;;5027650;28;20025;-76
2022/01/16 13:48:08;;;;;;;31.27;15.48;;;;;;;;;;5031070;28;20482;-77
2022/01/16 13:50:44;;;;;;;28.02;13.07;;;;;;;;;;5030445;28;20383;-77
2022/01/16 13:53:21;;;;;;;30.30;14.50;;;;;;;;;;5010858;28;20029;-77
2022/01/16 13:55:56;;;;;;;30.02;13.70;;;;;;;;;;5010513;28;20480;-76
2022/01/16 13:58:25;;;;;;;33.83;15.10;;;;;;;;;;5011900;28;20033;-76
2022/01/16 14:00:51;;;;;;;31.83;14.25;;;;;;;;;;5021166;28;20032;-77
2022/01/16 14:03:23;;;;;;;32.65;15.65;;;;;;;;;;5029889;28;20026;-75
2022/01/16 14:05:51;;;;;;;34.78;15.57;;;;;;;;;;5029833;28;20045;-76
2022/01/16 14:08:23;;;;;;;31.20;14.88;;;;;;;;;;5031286;28;20048;-75
2022/01/16 14:10:49;;;;;;;35.63;16.38;;;;;;;;;;5028491;28;20625;-77
2022/01/16 14:13:15;;;;;;;35.40;16.20;;;;;;;;;;5030103;28;20051;-76
2022/01/16 14:15:41;;;;;;;33.65;15.35;;;;;;;;;;5028447;28;20029;-77
2022/01/16 14:18:14;;;;;;;35.72;17.30;;;;;;;;;;5025158;28;20033;-76
2022/01/16 14:20:52;;;;;;;35.55;18.30;;;;;;;;;;5010086;28;20036;-76
2022/01/16 14:23:18;;;;;;;34.55;16.30;;;;;;;;;;5027241;28;20033;-77
2022/01/16 14:25:43;;;;;;;37.55;16.70;;;;;;;;;;5020582;28;20442;-77
2022/01/16 14:28:09;;;;;;;32.92;14.32;;;;;;;;;;5027490;28;20029;-77
2022/01/16 14:30:34;;;;;;;38.22;16.15;;;;;;;;;;5019587;28;20052;-76
2022/01/16 14:32:59;;;;;;;34.65;15.80;;;;;;;;;;5020567;28;20028;-76
2022/01/16 14:35:25;;;;;;;33.63;15.10;;;;;;;;;;5019928;28;20080;-77
2022/01/16 14:37:50;;;;;;;36.65;16.70;;;;;;;;;;5022386;28;20029;-77
2022/01/16 14:40:15;;;;;;;37.00;15.65;;;;;;;;;;5023178;28;20029;-77
2022/01/16 14:42:42;;;;;;;36.20;16.20;;;;;;;;;;5029035;28;20479;-76
2022/01/16 14:45:09;;;;;;;39.15;15.82;;;;;;;;;;5040742;28;20123;-76
2022/01/16 14:47:36;;;;;;;38.08;17.67;;;;;;;;;;5020532;28;20038;-76
2022/01/16 14:50:02;;;;;;;41.45;17.35;;;;;;;;;;5017156;28;20103;-76
2022/01/16 14:52:27;;;;;;;37.10;16.30;;;;;;;;;;5029279;28;20028;-75
2022/01/16 14:54:54;;;;;;;42.42;17.13;;;;;;;;;;5029697;28;20391;-76
2022/01/16 14:57:20;;;;;;;41.90;16.05;;;;;;;;;;5023435;28;20049;-76
2022/01/16 14:59:46;;;;;;;32.83;14.25;;;;;;;;;;5029616;28;20398;-76
2022/01/16 15:02:11;;;;;;;32.80;13.98;;;;;;;;;;5028636;28;20026;-76
2022/01/16 15:04:36;;;;;;;32.45;14.73;;;;;;;;;;5025182;28;20033;-75
2022/01/16 15:07:02;;;;;;;33.10;14.63;;;;;;;;;;5020069;28;20033;-76
2022/01/16 15:09:27;;;;;;;34.95;14.88;;;;;;;;;;5023349;28;20036;-75